Latest Weather Observations for Hamilton

IDV60801

Issued at 12:02 pm EST Friday 29 July 2016 (issued every 30 minutes, with the page automatically refreshed every 10 minutes)

About weather observations | Map of weather stations | Latest weather observations for VIC | Other Formats
Station Details ID: 090173 Name: HAMILTON AIRPORT Lat: -37.65 Lon: 142.06 Height: 241.1 m
Data from the previous 72 hours. | See also: Recent months at Hamilton
Date/Time
EST
Temp
°C
App
Temp
°C
Dew
Point
°C
Rel
Hum
%
Delta-T
°C
Wind Press
QNH
hPa
Press
MSL
hPa
Rain since
9am
mm
Dir  Spd
km/h
Gust
km/h
Spd
kts
Gust
kts
29/12:00pm 10.9 6.0 10.0 94 0.5 WSW 26 35 14 19 1021.5 1021.9 2.0
29/11:41am 11.3 7.6 10.0 92 0.7 WNW 20 32 11 17 1021.5 1021.9 0.2
29/11:30am 11.4 8.4 10.5 94 0.5 NW 17 22 9 12 1021.5 1021.9 0.2
29/11:00am 10.8 7.2 10.0 95 0.4 NW 19 24 10 13 1021.6 1022.0 0.2
29/10:30am 11.0 7.3 10.2 95 0.4 NW 20 26 11 14 1021.7 1022.2 0.2
29/10:00am 10.5 6.4 10.0 97 0.3 NW 22 26 12 14 1021.7 1022.2 0.2
29/09:30am 10.1 6.2 9.6 97 0.3 NW 20 24 11 13 1021.8 1022.3 0.0
29/09:15am 10.2 6.4 9.7 97 0.3 NW 20 26 11 14 1021.8 1022.3 0.0
29/09:00am 10.0 6.1 9.5 97 0.3 NW 20 28 11 15 1021.7 1022.2 2.4
29/08:30am 9.8 6.1 9.3 97 0.3 NW 19 26 10 14 1021.6 1022.0 2.0
29/08:00am 9.7 5.7 9.2 97 0.2 NW 20 28 11 15 1021.4 1021.8 1.6
29/07:30am 9.6 5.6 9.1 97 0.2 NW 20 26 11 14 1021.2 1021.6 1.4
29/07:00am 9.6 5.6 9.1 97 0.2 NW 20 26 11 14 1021.0 1021.4 1.2
29/06:44am 9.5 5.5 9.0 97 0.2 NNW 20 24 11 13 1020.8 1021.2 1.0
29/06:33am 9.5 5.5 9.0 97 0.2 NW 20 28 11 15 1020.8 1021.2 1.0
29/06:30am 9.5 5.5 9.0 97 0.2 NW 20 28 11 15 1020.8 1021.2 1.0
29/06:00am 9.5 5.1 8.9 96 0.3 NW 22 30 12 16 1020.7 1021.1 1.0
29/05:52am 9.5 5.1 8.9 96 0.3 NNW 22 30 12 16 1020.8 1021.2 1.0
29/05:30am 9.5 5.5 9.0 97 0.2 NW 20 30 11 16 1020.7 1021.1 1.0
29/05:00am 9.5 5.1 9.0 97 0.2 NW 22 30 12 16 1020.6 1021.0 1.0
29/04:30am 9.5 5.1 9.0 97 0.2 NW 22 28 12 15 1020.7 1021.1 1.0
29/04:00am 9.4 5.0 8.9 97 0.2 NW 22 30 12 16 1020.7 1021.1 0.6
29/03:30am 9.3 4.8 8.7 96 0.3 NW 22 30 12 16 1020.8 1021.2 0.6
29/03:00am 9.2 4.7 8.6 96 0.3 NNW 22 28 12 15 1021.1 1021.5 0.4
29/02:30am 9.1 5.0 8.5 96 0.3 NNW 20 26 11 14 1021.3 1021.7 0.4
29/02:00am 9.2 5.1 8.6 96 0.3 NNW 20 30 11 16 1021.5 1021.9 0.4
29/01:51am 9.2 4.7 8.4 95 0.4 NNW 22 30 12 16 1021.4 1021.8 0.4
29/01:30am 9.2 5.0 8.4 95 0.4 NNW 20 32 11 17 1021.4 1021.8 0.4
29/01:23am 9.2 4.7 8.4 95 0.4 NNW 22 32 12 17 1021.5 1021.9 0.4
29/01:00am 9.1 4.9 8.3 95 0.4 NNW 20 24 11 13 1021.8 1022.3 0.4
29/12:30am 9.2 5.0 8.3 94 0.4 NW 20 26 11 14 1022.1 1022.6 0.2
29/12:22am 9.3 4.8 8.4 94 0.4 NW 22 30 12 16 1022.3 1022.8 0.2
29/12:10am 9.3 4.4 8.4 94 0.4 NW 24 32 13 17 1022.2 1022.7 0.2
29/12:00am 9.2 4.6 8.1 93 0.5 NW 22 30 12 16 1022.2 1022.7 0.2
 
Date/Time
EST
Temp
°C
App
Temp
°C
Dew
Point
°C
Rel
Hum
%
Delta-T
°C
Wind Press
QNH
hPa
Press
MSL
hPa
Rain since
9am
mm
Dir  Spd
km/h
Gust
km/h
Spd
kts
Gust
kts
28/11:49pm 9.4 4.8 8.2 92 0.6 NNW 22 30 12 16 1022.3 1022.8 0.2
28/11:30pm 9.5 4.9 8.1 91 0.7 NW 22 28 12 15 1022.5 1023.0 0.2
28/11:00pm 9.6 5.3 8.0 90 0.8 NW 20 26 11 14 1022.6 1023.1 0.2
28/10:30pm 9.6 4.6 8.0 90 0.8 NW 24 33 13 18 1022.8 1023.3 0.2
28/10:00pm 9.6 4.6 8.2 91 0.7 NW 24 32 13 17 1022.9 1023.4 0.2
28/09:30pm 10.1 4.7 7.9 86 1.1 NW 26 33 14 18 1023.1 1023.6 0.2
28/09:00pm 10.3 5.5 7.5 83 1.4 NW 22 32 12 17 1023.2 1023.7 0.2
28/08:30pm 10.2 4.7 7.6 84 1.3 NW 26 33 14 18 1023.5 1024.0 0.2
28/08:00pm 10.6 6.1 6.9 78 1.8 NW 20 26 11 14 1023.4 1023.9 0.2
28/07:30pm 11.0 5.7 6.7 75 2.1 NW 24 30 13 16 1023.3 1023.8 0.2
28/07:00pm 11.1 5.5 7.2 77 1.9 NW 26 35 14 19 1023.4 1023.9 0.2
28/06:30pm 11.3 6.1 7.2 76 2.0 NW 24 30 13 16 1023.2 1023.7 0.2
28/06:00pm 11.7 6.1 7.0 73 2.3 WNW 26 37 14 20 1023.1 1023.6 0.2
28/05:30pm 11.8 7.0 7.3 74 2.2 WNW 22 30 12 16 1023.0 1023.5 0.2
28/05:00pm 12.2 7.0 7.3 72 2.4 NW 24 37 13 20 1022.9 1023.4 0.2
28/04:30pm 12.5 7.4 7.6 72 2.4 WNW 24 35 13 19 1022.8 1023.3 0.2
28/04:00pm 13.6 8.4 8.9 73 2.4 WNW 26 33 14 18 1022.9 1023.4 0.2
28/03:30pm 13.0 7.5 7.7 70 2.6 WNW 26 35 14 19 1022.8 1023.3 0.2
28/03:00pm 13.2 7.9 8.3 72 2.5 NW 26 35 14 19 1022.7 1023.2 0.2
28/02:30pm 13.3 8.3 8.2 71 2.6 WNW 24 39 13 21 1022.8 1023.3 0.2
28/02:00pm 12.0 6.3 8.5 79 1.7 WNW 28 35 15 19 1023.0 1023.5 0.2
28/01:30pm 12.5 6.8 8.2 75 2.2 WNW 28 39 15 21 1023.2 1023.7 0.2
28/01:00pm 12.3 6.5 8.0 75 2.1 WNW 28 39 15 21 1023.4 1023.9 0.2
28/12:30pm 11.9 6.5 7.8 76 2.0 WNW 26 35 14 19 1023.8 1024.3 0.2
28/12:00pm 11.1 6.5 8.0 81 1.5 WNW 22 32 12 17 1024.4 1024.8 0.2
28/11:30am 11.1 6.0 7.8 80 1.6 WNW 24 32 13 17 1024.7 1025.1 0.2
28/11:00am 10.9 6.7 8.3 84 1.3 NW 20 28 11 15 1024.7 1025.1 0.0
28/10:30am 9.9 5.2 7.8 87 1.0 NW 22 32 12 17 1024.8 1025.2 0.0
28/10:29am 10.0 5.4 8.1 88 0.9 NW 22 32 12 17 1024.8 1025.2 0.0
28/10:17am 9.5 3.7 7.8 89 0.8 NW 28 35 15 19 1024.8 1025.2 0.0
28/10:00am 9.7 4.8 7.1 84 1.2 NW 22 28 12 15 1024.7 1025.1 0.0
28/09:30am 9.2 4.8 7.2 87 1.0 NW 20 24 11 13 1024.5 1024.9 0.0
28/09:00am 8.7 4.2 7.0 89 0.8 NNW 20 26 11 14 1024.1 1024.5 0.6
28/08:30am 8.3 3.8 6.9 91 0.7 NW 20 28 11 15 1024.0 1024.4 0.6
28/08:20am 8.3 4.0 6.9 91 0.7 NW 19 24 10 13 1024.0 1024.4 0.6
28/08:00am 7.9 3.3 6.7 92 0.6 NW 20 26 11 14 1023.8 1024.3 0.6
28/07:30am 8.2 3.3 6.7 90 0.7 WNW 22 30 12 16 1024.0 1024.4 0.6
28/07:12am 8.4 3.8 6.7 89 0.8 WNW 20 30 11 16 1023.8 1024.3 0.6
28/07:00am 8.4 4.4 6.7 89 0.8 WNW 17 24 9 13 1023.8 1024.3 0.6
28/06:30am 8.2 4.2 6.8 91 0.7 WNW 17 20 9 11 1023.6 1024.1 0.6
28/06:00am 8.0 3.5 6.8 92 0.6 NW 20 28 11 15 1023.4 1023.9 0.6
28/05:58am 7.9 3.3 6.7 92 0.6 NW 20 26 11 14 1023.4 1023.9 0.6
28/05:30am 8.0 3.5 6.9 93 0.5 NW 20 28 11 15 1023.2 1023.7 0.6
28/05:00am 8.2 3.3 7.0 92 0.6 WNW 22 37 12 20 1023.0 1023.5 0.6
28/04:30am 8.2 3.8 7.3 94 0.4 WNW 20 32 11 17 1022.9 1023.4 0.6
28/04:27am 8.2 3.8 7.3 94 0.4 WNW 20 32 11 17 1022.9 1023.4 0.6
28/04:10am 8.2 3.3 7.1 93 0.5 NW 22 28 12 15 1022.8 1023.3 0.6
28/04:00am 8.2 3.7 7.1 93 0.5 NW 20 24 11 13 1022.8 1023.3 0.6
28/03:30am 8.0 3.7 7.1 94 0.4 NW 19 24 10 13 1022.8 1023.3 0.6
28/03:12am 8.1 3.6 7.0 93 0.5 NW 20 24 11 13 1022.9 1023.4 0.6
28/03:00am 8.1 3.6 7.0 93 0.5 NW 20 26 11 14 1022.9 1023.4 0.6
28/02:40am 7.9 3.6 6.8 93 0.5 WNW 19 26 10 14 1022.9 1023.4 0.6
28/02:30am 7.9 3.4 6.8 93 0.5 WNW 20 26 11 14 1022.9 1023.4 0.6
28/02:19am 8.0 3.1 6.8 92 0.6 WNW 22 30 12 16 1022.9 1023.4 0.6
28/02:00am 7.9 3.3 6.7 92 0.6 NW 20 28 11 15 1023.0 1023.5 0.6
28/01:30am 7.7 3.4 6.8 94 0.4 NW 19 22 10 12 1023.0 1023.5 0.6
28/01:03am 7.8 3.3 7.1 95 0.3 NW 20 28 11 15 1023.0 1023.5 0.6
28/01:00am 7.7 3.2 7.0 95 0.3 NW 20 24 11 13 1023.0 1023.5 0.6
28/12:30am 7.7 3.2 7.0 95 0.3 NW 20 28 11 15 1023.1 1023.6 0.6
28/12:11am 7.7 2.8 6.8 94 0.4 NW 22 28 12 15 1023.1 1023.6 0.6
28/12:00am 7.7 2.8 6.8 94 0.4 NW 22 30 12 16 1023.1 1023.6 0.6
 
Date/Time
EST
Temp
°C
App
Temp
°C
Dew
Point
°C
Rel
Hum
%
Delta-T
°C
Wind Press
QNH
hPa
Press
MSL
hPa
Rain since
9am
mm
Dir  Spd
km/h
Gust
km/h
Spd
kts
Gust
kts
27/11:55pm 7.6 3.1 6.9 95 0.3 NW 20 28 11 15 1023.1 1023.6 0.6
27/11:39pm 7.6 3.7 6.9 95 0.3 NW 17 22 9 12 1023.1 1023.6 0.6
27/11:30pm 7.6 3.7 6.9 95 0.3 NW 17 20 9 11 1023.1 1023.6 0.6
27/11:29pm 7.6 3.7 6.9 95 0.3 NW 17 20 9 11 1023.1 1023.6 0.6
27/11:28pm 7.6 3.7 6.9 95 0.3 NW 17 20 9 11 1023.1 1023.6 0.6
27/11:00pm 7.7 3.4 6.8 94 0.4 NW 19 22 10 12 1023.1 1023.6 0.4
27/10:51pm 7.7 3.4 6.8 94 0.4 NW 19 22 10 12 1023.0 1023.5 0.4
27/10:30pm 7.5 3.5 6.6 94 0.4 NNW 17 22 9 12 1022.9 1023.4 0.2
27/10:15pm 7.4 3.3 6.3 93 0.5 NNW 17 22 9 12 1023.0 1023.5 0.2
27/10:00pm 7.5 3.0 6.3 92 0.6 NW 19 24 10 13 1022.9 1023.4 0.2
27/09:35pm 7.8 3.3 6.1 89 0.8 WNW 19 26 10 14 1023.0 1023.5 0.2
27/09:30pm 7.9 3.8 6.0 88 0.9 WNW 17 22 9 12 1023.0 1023.5 0.2
27/09:18pm 7.8 3.6 5.8 87 0.9 WNW 17 22 9 12 1023.0 1023.5 0.2
27/09:00pm 7.7 3.9 5.7 87 0.9 NW 15 17 8 9 1022.9 1023.4 0.2
27/08:42pm 7.6 3.4 5.9 89 0.8 WNW 17 24 9 13 1023.0 1023.5 0.2
27/08:30pm 7.6 3.4 5.7 88 0.9 WNW 17 24 9 13 1023.0 1023.5 0.2
27/08:28pm 7.7 3.5 5.7 87 0.9 WNW 17 24 9 13 1023.0 1023.5 0.2
27/08:00pm 7.9 4.4 5.5 85 1.1 WNW 13 15 7 8 1023.1 1023.6 0.2
27/07:30pm 7.9 3.3 5.4 84 1.1 WNW 19 28 10 15 1022.7 1023.2 0.2
27/07:00pm 7.9 3.2 5.2 83 1.2 NW 19 24 10 13 1022.0 1022.5 0.2
27/06:30pm 8.0 3.1 4.9 81 1.4 WNW 20 28 11 15 1021.4 1021.8 0.2
27/06:00pm 8.2 3.2 4.8 79 1.5 WNW 20 26 11 14 1021.3 1021.7 0.2
27/05:30pm 8.1 3.7 4.7 79 1.5 WNW 17 24 9 13 1020.8 1021.2 0.2
27/05:00pm 8.0 1.1 4.8 80 1.4 W 30 48 16 26 1020.7 1021.1 0.2
27/04:54pm 8.5 1.6 4.5 76 1.8 W 30 48 16 26 1020.6 1021.0 0.2
27/04:30pm 9.1 4.0 4.3 72 2.1 W 20 26 11 14 1020.4 1020.8 0.2
27/04:00pm 9.1 2.1 4.1 71 2.2 W 30 37 16 20 1020.3 1020.7 0.2
27/03:30pm 9.2 3.7 4.2 71 2.2 W 22 35 12 19 1020.0 1020.4 0.2
27/03:00pm 9.1 3.2 4.1 71 2.2 W 24 32 13 17 1019.6 1020.0 0.2
27/02:36pm 9.3 2.7 4.1 70 2.3 W 28 46 15 25 1019.2 1019.7 0.2
27/02:30pm 9.4 3.9 4.2 70 2.3 W 22 46 12 25 1019.1 1019.6 0.2
27/02:00pm 9.3 4.2 3.9 69 2.4 W 20 26 11 14 1018.8 1019.3 0.2
27/01:30pm 8.7 2.0 3.7 71 2.2 WSW 28 37 15 20 1018.7 1019.2 0.2
27/01:00pm 8.8 3.0 4.4 74 2.0 W 24 33 13 18 1018.7 1019.2 0.2
27/12:30pm 8.9 2.3 4.3 73 2.1 WSW 28 37 15 20 1018.5 1019.0 0.2
27/12:18pm 8.5 3.3 5.6 82 1.3 WSW 22 30 12 16 1018.5 1019.0 0.2
27/12:01pm 7.4 1.4 5.2 86 1.0 WSW 26 37 14 20 1018.7 1019.2 0.2
27/12:00pm 7.5 1.8 5.1 85 1.1 WSW 24 37 13 20 1018.7 1019.2 0.2
27/11:30am 8.4 3.1 5.0 79 1.5 WSW 22 32 12 17 1018.0 1018.4 0.2
27/11:14am 7.9 3.3 5.5 85 1.1 WSW 19 24 10 13 1018.1 1018.5 0.2
27/11:00am 7.2 0.8 5.2 87 0.9 WSW 28 41 15 22 1018.1 1018.5 0.2
27/10:58am 7.2 0.8 5.0 86 1.0 WSW 28 41 15 22 1018.1 1018.5 0.2
27/10:30am 8.2 3.8 5.0 80 1.4 WSW 17 24 9 13 1017.4 1017.8 0.0
27/10:00am 7.4 2.4 4.7 83 1.2 WSW 20 26 11 14 1017.3 1017.7 0.0
27/09:30am 7.1 1.6 4.2 82 1.3 WSW 22 28 12 15 1016.7 1017.1 0.0
27/09:00am 6.9 2.0 4.2 83 1.2 WSW 19 24 10 13 1016.1 1016.5 1.6
27/08:30am 6.4 0.5 3.9 84 1.1 SW 24 32 13 17 1015.7 1016.1 1.6
27/08:00am 5.9 1.1 4.4 90 0.7 SW 19 24 10 13 1015.0 1015.5 1.6
27/07:30am 5.7 1.3 4.5 92 0.5 WSW 17 24 9 13 1014.2 1014.6 1.6
27/07:00am 6.5 1.2 5.1 91 0.6 SW 22 30 12 16 1013.3 1013.7 1.6
27/06:38am 6.6 0.6 5.1 90 0.7 SW 26 33 14 18 1012.7 1013.1 1.6
27/06:30am 6.6 -0.8 5.1 90 0.7 SW 33 48 18 26 1012.5 1012.9 1.6
27/06:20am 7.0 1.0 5.5 90 0.7 SW 26 44 14 24 1012.3 1012.7 1.6
27/06:17am 7.0 1.0 5.5 90 0.7 SW 26 33 14 18 1012.2 1012.6 1.6
27/06:00am 7.3 0.3 6.1 92 0.6 SW 32 43 17 23 1011.6 1012.0 1.6
27/05:37am 7.7 0.3 6.8 94 0.4 SSW 35 48 19 26 1010.5 1010.9 1.6
27/05:30am 7.7 0.7 7.0 95 0.3 SW 33 50 18 27 1010.2 1010.6 1.6
27/05:24am 7.7 1.7 7.1 96 0.3 SW 28 50 15 27 1009.9 1010.3 1.6
27/05:00am 7.8 3.5 7.2 96 0.3 WSW 19 24 10 13 1009.2 1009.6 1.0
27/04:43am 7.8 2.6 7.1 95 0.3 WSW 24 32 13 17 1008.8 1009.2 0.8
27/04:31am 7.8 2.9 7.1 95 0.3 WSW 22 30 12 16 1008.4 1008.8 0.8
27/04:30am 7.8 2.9 7.1 95 0.3 WSW 22 30 12 16 1008.4 1008.8 0.8
27/04:18am 7.7 3.2 6.8 94 0.4 WSW 20 30 11 16 1008.2 1008.6 0.8
27/04:00am 7.7 3.2 6.8 94 0.4 W 20 30 11 16 1007.9 1008.3 0.6
27/03:30am 7.6 2.7 6.7 94 0.4 W 22 32 12 17 1007.4 1007.7 0.6
27/03:15am 7.5 2.9 6.6 94 0.4 W 20 26 11 14 1007.2 1007.5 0.6
27/03:00am 7.5 3.1 6.6 94 0.4 WNW 19 28 10 15 1007.0 1007.3 0.6
27/02:57am 7.6 3.0 6.7 94 0.4 WNW 20 28 11 15 1006.9 1007.2 0.6
27/02:30am 7.7 3.2 7.0 95 0.3 W 20 30 11 16 1006.2 1006.6 0.6
27/02:00am 7.6 3.3 6.9 95 0.3 WNW 19 30 10 16 1005.9 1006.3 0.6
27/01:30am 7.4 2.8 6.7 95 0.3 WNW 20 30 11 16 1005.4 1005.8 0.6
27/01:00am 7.0 2.4 6.3 95 0.3 NW 20 26 11 14 1005.0 1005.4 0.6
27/12:30am 6.8 2.3 6.1 95 0.3 NW 19 22 10 12 1004.8 1005.2 0.6
27/12:10am 6.7 1.6 6.0 95 0.3 NW 22 28 12 15 1004.5 1004.9 0.6
27/12:01am 6.6 1.1 5.9 95 0.3 NW 24 33 13 18 1004.4 1004.8 0.6
27/12:00am 6.6 1.1 5.9 95 0.3 NNW 24 33 13 18 1004.4 1004.8 0.6
 
Date/Time
EST
Temp
°C
App
Temp
°C
Dew
Point
°C
Rel
Hum
%
Delta-T
°C
Wind Press
QNH
hPa
Press
MSL
hPa
Rain since
9am
mm
Dir  Spd
km/h
Gust
km/h
Spd
kts
Gust
kts
26/11:59pm 6.6 1.1 5.9 95 0.3 NNW 24 33 13 18 1004.4 1004.8 0.6
26/11:30pm 6.4 1.6 5.7 95 0.3 NNW 20 24 11 13 1004.2 1004.5 0.6
26/11:23pm 6.4 1.2 5.5 94 0.4 NNW 22 28 12 15 1004.2 1004.5 0.6
26/11:20pm 6.4 1.2 5.5 94 0.4 NNW 22 30 12 16 1004.1 1004.4 0.6
26/11:00pm 6.5 0.5 5.5 93 0.5 NNW 26 33 14 18 1004.1 1004.4 0.6
26/10:55pm 6.5 0.5 5.5 93 0.4 NNW 26 33 14 18 1004.0 1004.3 0.6
26/10:30pm 6.7 0.8 5.7 93 0.5 NNW 26 30 14 16 1003.8 1004.1 0.6
26/10:01pm 6.8 0.5 5.6 92 0.5 NNW 28 39 15 21 1003.7 1004.0 0.6
26/10:00pm 6.8 0.5 5.6 92 0.5 NNW 28 39 15 21 1003.7 1004.0 0.6
26/09:30pm 6.7 -0.4 5.3 91 0.6 NNW 32 39 17 21 1003.5 1003.8 0.6
26/09:00pm 6.7 -0.1 5.3 91 0.6 NNW 30 39 16 21 1003.7 1004.0 0.6
26/08:30pm 6.8 -0.5 5.3 90 0.7 NNW 33 46 18 25 1003.7 1004.0 0.6
26/08:12pm 7.0 -0.4 5.2 88 0.8 NNW 33 52 18 28 1003.7 1004.0 0.6
26/08:00pm 7.1 -0.3 5.1 87 0.9 NNW 33 43 18 23 1003.5 1003.8 0.4
26/07:30pm 7.4 -0.8 4.9 84 1.1 N 37 50 20 27 1003.6 1003.9 0.4
26/07:00pm 7.2 -0.6 5.0 86 1.0 N 35 48 19 26 1004.0 1004.3 0.4
26/06:30pm 7.0 -0.1 5.3 89 0.8 N 32 43 17 23 1004.3 1004.6 0.4
26/06:00pm 7.3 -0.9 5.0 85 1.0 N 37 50 20 27 1004.7 1005.1 0.0
26/05:30pm 7.4 -0.4 4.9 84 1.1 N 35 46 19 25 1004.9 1005.3 0.0
26/05:00pm 7.4 -0.8 4.7 83 1.2 N 37 52 20 28 1005.1 1005.5 0.0
26/04:30pm 7.6 0.2 4.9 83 1.2 N 33 46 18 25 1005.8 1006.2 0.0
26/04:00pm 7.9 0.8 5.5 85 1.1 N 32 39 17 21 1006.3 1006.7 0.0
26/03:30pm 7.5 0.3 5.1 85 1.1 NNW 32 39 17 21 1007.0 1007.3 0.0
26/03:00pm 7.6 0.4 4.9 83 1.2 NNW 32 43 17 23 1007.5 1007.8 0.0
26/02:30pm 7.6 -0.2 5.1 84 1.1 NNW 35 43 19 23 1007.7 1008.0 0.0
26/02:00pm 7.7 0.5 5.2 84 1.1 NNW 32 43 17 23 1008.3 1008.7 0.0
26/01:30pm 7.1 -0.2 4.6 84 1.1 N 32 43 17 23 1008.9 1009.3 0.0
26/01:00pm 6.9 -0.7 4.0 82 1.3 NNW 33 43 18 23 1009.6 1010.0 0.0
26/12:30pm 6.6 -0.8 3.9 83 1.2 NNW 32 39 17 21 1010.1 1010.5 0.0

Other Formats:

Comma delimited format used in spreadsheet applications
http://www.bom.gov.au/fwo/IDV60801/IDV60801.94829.axf

JavaScript Object Notation format (JSON) in row-major order
http://www.bom.gov.au/fwo/IDV60801/IDV60801.94829.json